sensor_id;sensor_type;location;lat;lon;timestamp;temperature;humidity
39919;DHT22;25589;51.552;13.424;2022-12-26T00:00:25;11.30;99.90
39919;DHT22;25589;51.552;13.424;2022-12-26T00:02:51;11.30;99.90
39919;DHT22;25589;51.552;13.424;2022-12-26T00:05:16;11.20;99.90
39919;DHT22;25589;51.552;13.424;2022-12-26T00:07:42;11.20;99.90
39919;DHT22;25589;51.552;13.424;2022-12-26T00:10:07;11.30;99.90
39919;DHT22;25589;51.552;13.424;2022-12-26T00:12:33;11.30;99.90
39919;DHT22;25589;51.552;13.424;2022-12-26T00:14:59;11.30;99.90
39919;DHT22;25589;51.552;13.424;2022-12-26T00:17:25;11.30;99.90
39919;DHT22;25589;51.552;13.424;2022-12-26T00:19:50;11.40;99.90
39919;DHT22;25589;51.552;13.424;2022-12-26T00:22:16;11.40;99.90
39919;DHT22;25589;51.552;13.424;2022-12-26T00:24:42;11.40;99.90
39919;DHT22;25589;51.552;13.424;2022-12-26T00:27:08;11.40;99.90
39919;DHT22;25589;51.552;13.424;2022-12-26T00:29:33;11.40;99.90
39919;DHT22;25589;51.552;13.424;2022-12-26T00:31:59;11.40;99.90
39919;DHT22;25589;51.552;13.424;2022-12-26T00:34:24;11.40;99.90
39919;DHT22;25589;51.552;13.424;2022-12-26T00:36:50;11.50;99.90
39919;DHT22;25589;51.552;13.424;2022-12-26T00:39:15;11.50;99.90
39919;DHT22;25589;51.552;13.424;2022-12-26T00:41:42;11.50;99.90
39919;DHT22;25589;51.552;13.424;2022-12-26T00:44:07;11.60;99.90
39919;DHT22;25589;51.552;13.424;2022-12-26T00:46:33;11.60;99.90
39919;DHT22;25589;51.552;13.424;2022-12-26T00:48:58;12.00;99.90
39919;DHT22;25589;51.552;13.424;2022-12-26T00:51:24;11.70;99.90
39919;DHT22;25589;51.552;13.424;2022-12-26T00:53:50;11.80;99.90
39919;DHT22;25589;51.552;13.424;2022-12-26T00:56:16;11.80;99.90
39919;DHT22;25589;51.552;13.424;2022-12-26T00:58:41;11.90;99.90
39919;DHT22;25589;51.552;13.424;2022-12-26T01:03:37;12.00;99.90
39919;DHT22;25589;51.552;13.424;2022-12-26T01:06:04;12.10;99.90
39919;DHT22;25589;51.552;13.424;2022-12-26T01:08:30;12.00;99.90
39919;DHT22;25589;51.552;13.424;2022-12-26T01:10:56;11.10;99.90
39919;DHT22;25589;51.552;13.424;2022-12-26T01:13:21;12.00;99.90
39919;DHT22;25589;51.552;13.424;2022-12-26T01:15:51;12.10;99.90
39919;DHT22;25589;51.552;13.424;2022-12-26T01:18:18;12.10;99.90
39919;DHT22;25589;51.552;13.424;2022-12-26T01:20:44;12.10;99.90
39919;DHT22;25589;51.552;13.424;2022-12-26T01:23:09;12.00;99.90
39919;DHT22;25589;51.552;13.424;2022-12-26T01:25:35;12.10;99.90
39919;DHT22;25589;51.552;13.424;2022-12-26T01:28:00;12.20;99.90
39919;DHT22;25589;51.552;13.424;2022-12-26T01:30:26;12.30;99.90
39919;DHT22;25589;51.552;13.424;2022-12-26T01:32:52;12.30;99.90
39919;DHT22;25589;51.552;13.424;2022-12-26T01:35:17;12.30;99.90
39919;DHT22;25589;51.552;13.424;2022-12-26T01:37:43;12.60;99.90
39919;DHT22;25589;51.552;13.424;2022-12-26T01:40:11;12.30;99.90
39919;DHT22;25589;51.552;13.424;2022-12-26T01:42:39;12.30;99.90
39919;DHT22;25589;51.552;13.424;2022-12-26T01:45:21;12.30;99.90
39919;DHT22;25589;51.552;13.424;2022-12-26T01:53:15;12.40;99.90
39919;DHT22;25589;51.552;13.424;2022-12-26T01:55:45;12.40;99.90
39919;DHT22;25589;51.552;13.424;2022-12-26T01:58:16;12.40;99.90
39919;DHT22;25589;51.552;13.424;2022-12-26T02:00:43;12.40;99.90
39919;DHT22;25589;51.552;13.424;2022-12-26T02:03:09;12.40;99.90
39919;DHT22;25589;51.552;13.424;2022-12-26T02:05:56;12.40;99.90
39919;DHT22;25589;51.552;13.424;2022-12-26T02:08:30;12.40;99.90
39919;DHT22;25589;51.552;13.424;2022-12-26T02:11:17;12.40;99.90
39919;DHT22;25589;51.552;13.424;2022-12-26T02:13:43;12.30;99.90
39919;DHT22;25589;51.552;13.424;2022-12-26T02:16:12;12.50;99.90
39919;DHT22;25589;51.552;13.424;2022-12-26T02:18:38;12.40;99.90
39919;DHT22;25589;51.552;13.424;2022-12-26T02:21:22;12.40;99.90
39919;DHT22;25589;51.552;13.424;2022-12-26T02:24:24;12.40;99.90
39919;DHT22;25589;51.552;13.424;2022-12-26T02:29:53;12.40;99.90
39919;DHT22;25589;51.552;13.424;2022-12-26T02:32:34;12.40;99.90
39919;DHT22;25589;51.552;13.424;2022-12-26T02:40:52;12.70;99.90
39919;DHT22;25589;51.552;13.424;2022-12-26T02:43:31;12.40;99.90
39919;DHT22;25589;51.552;13.424;2022-12-26T02:46:23;12.40;99.90
39919;DHT22;25589;51.552;13.424;2022-12-26T02:49:20;12.30;99.90
39919;DHT22;25589;51.552;13.424;2022-12-26T02:52:07;12.30;99.90
39919;DHT22;25589;51.552;13.424;2022-12-26T02:55:12;12.30;99.90
39919;DHT22;25589;51.552;13.424;2022-12-26T02:58:06;12.70;99.90
39919;DHT22;25589;51.552;13.424;2022-12-26T03:00:59;12.50;99.90
39919;DHT22;25589;51.552;13.424;2022-12-26T03:03:48;12.20;99.90
39919;DHT22;25589;51.552;13.424;2022-12-26T03:06:34;12.20;99.90
39919;DHT22;25589;51.552;13.424;2022-12-26T03:09:24;12.30;99.90
39919;DHT22;25589;51.552;13.424;2022-12-26T03:15:06;12.20;99.90
39919;DHT22;25589;51.552;13.424;2022-12-26T03:17:48;12.20;99.90
39919;DHT22;25589;51.552;13.424;2022-12-26T03:20:25;12.00;99.90
39919;DHT22;25589;51.552;13.424;2022-12-26T03:25:31;12.00;99.90
39919;DHT22;25589;51.552;13.424;2022-12-26T03:28:20;12.20;99.90
39919;DHT22;25589;51.552;13.424;2022-12-26T03:30:46;12.10;99.90
39919;DHT22;25589;51.552;13.424;2022-12-26T03:33:29;12.00;99.90
39919;DHT22;25589;51.552;13.424;2022-12-26T03:41:58;12.10;99.90
39919;DHT22;25589;51.552;13.424;2022-12-26T03:44:59;12.00;99.90
39919;DHT22;25589;51.552;13.424;2022-12-26T03:50:43;12.20;99.90
39919;DHT22;25589;51.552;13.424;2022-12-26T03:53:41;12.60;99.90
39919;DHT22;25589;51.552;13.424;2022-12-26T03:56:51;12.30;99.90
39919;DHT22;25589;51.552;13.424;2022-12-26T04:02:39;12.10;99.90
39919;DHT22;25589;51.552;13.424;2022-12-26T04:05:26;12.00;99.90
39919;DHT22;25589;51.552;13.424;2022-12-26T04:08:18;12.00;99.90
39919;DHT22;25589;51.552;13.424;2022-12-26T04:11:05;12.10;99.90
39919;DHT22;25589;51.552;13.424;2022-12-26T04:14:04;12.10;99.90
39919;DHT22;25589;51.552;13.424;2022-12-26T04:17:04;12.10;99.90
39919;DHT22;25589;51.552;13.424;2022-12-26T04:20:07;12.10;99.90
39919;DHT22;25589;51.552;13.424;2022-12-26T04:22:49;12.10;99.90
39919;DHT22;25589;51.552;13.424;2022-12-26T04:25:40;11.80;99.90
39919;DHT22;25589;51.552;13.424;2022-12-26T04:28:27;12.20;99.90
39919;DHT22;25589;51.552;13.424;2022-12-26T04:31:30;12.30;99.90
39919;DHT22;25589;51.552;13.424;2022-12-26T04:34:21;12.60;99.90
39919;DHT22;25589;51.552;13.424;2022-12-26T04:37:17;12.20;99.90
39919;DHT22;25589;51.552;13.424;2022-12-26T04:40:05;12.20;99.90
39919;DHT22;25589;51.552;13.424;2022-12-26T04:42:52;12.20;99.90
39919;DHT22;25589;51.552;13.424;2022-12-26T04:45:36;12.40;99.90
39919;DHT22;25589;51.552;13.424;2022-12-26T04:48:03;12.10;99.90
39919;DHT22;25589;51.552;13.424;2022-12-26T04:50:49;12.20;99.90
39919;DHT22;25589;51.552;13.424;2022-12-26T04:53:16;12.20;99.90
39919;DHT22;25589;51.552;13.424;2022-12-26T04:55:41;12.20;99.90
39919;DHT22;25589;51.552;13.424;2022-12-26T04:58:07;12.20;99.90
39919;DHT22;25589;51.552;13.424;2022-12-26T05:00:32;12.20;99.90
39919;DHT22;25589;51.552;13.424;2022-12-26T05:02:58;12.60;99.90
39919;DHT22;25589;51.552;13.424;2022-12-26T05:05:47;12.20;99.90
39919;DHT22;25589;51.552;13.424;2022-12-26T05:08:38;12.10;99.90
39919;DHT22;25589;51.552;13.424;2022-12-26T05:11:24;12.30;99.90
39919;DHT22;25589;51.552;13.424;2022-12-26T05:13:51;12.30;99.90
39919;DHT22;25589;51.552;13.424;2022-12-26T05:16:17;12.30;99.90
39919;DHT22;25589;51.552;13.424;2022-12-26T05:19:01;12.90;99.90
39919;DHT22;25589;51.552;13.424;2022-12-26T05:21:46;12.40;99.90
39919;DHT22;25589;51.552;13.424;2022-12-26T05:24:34;12.30;99.90
39919;DHT22;25589;51.552;13.424;2022-12-26T05:27:20;12.40;99.90
39919;DHT22;25589;51.552;13.424;2022-12-26T05:30:05;12.30;99.90
39919;DHT22;25589;51.552;13.424;2022-12-26T05:32:31;12.30;99.90
39919;DHT22;25589;51.552;13.424;2022-12-26T05:35:15;12.40;99.90
39919;DHT22;25589;51.552;13.424;2022-12-26T05:37:41;12.40;99.90
39919;DHT22;25589;51.552;13.424;2022-12-26T05:40:07;12.40;99.90
39919;DHT22;25589;51.552;13.424;2022-12-26T05:44:59;12.40;99.90
39919;DHT22;25589;51.552;13.424;2022-12-26T05:47:25;12.40;99.90
39919;DHT22;25589;51.552;13.424;2022-12-26T05:49:51;12.40;99.90
39919;DHT22;25589;51.552;13.424;2022-12-26T05:52:16;12.70;99.90
39919;DHT22;25589;51.552;13.424;2022-12-26T05:54:42;12.40;99.90
39919;DHT22;25589;51.552;13.424;2022-12-26T05:57:07;12.40;99.90
39919;DHT22;25589;51.552;13.424;2022-12-26T05:59:33;12.40;99.90
39919;DHT22;25589;51.552;13.424;2022-12-26T06:01:59;12.40;99.90
39919;DHT22;25589;51.552;13.424;2022-12-26T06:04:24;12.10;99.90
39919;DHT22;25589;51.552;13.424;2022-12-26T06:06:51;12.40;99.90
39919;DHT22;25589;51.552;13.424;2022-12-26T06:09:21;12.60;99.90
39919;DHT22;25589;51.552;13.424;2022-12-26T06:11:47;12.40;99.90
39919;DHT22;25589;51.552;13.424;2022-12-26T06:14:13;12.50;99.90
39919;DHT22;25589;51.552;13.424;2022-12-26T06:16:39;13.10;99.90
39919;DHT22;25589;51.552;13.424;2022-12-26T06:19:04;12.40;99.90
39919;DHT22;25589;51.552;13.424;2022-12-26T06:21:30;13.80;99.90
39919;DHT22;25589;51.552;13.424;2022-12-26T06:23:55;13.40;99.90
39919;DHT22;25589;51.552;13.424;2022-12-26T06:26:21;12.40;99.90
39919;DHT22;25589;51.552;13.424;2022-12-26T06:28:46;12.30;99.90
39919;DHT22;25589;51.552;13.424;2022-12-26T06:31:17;12.40;99.90
39919;DHT22;25589;51.552;13.424;2022-12-26T06:33:45;12.30;99.90
39919;DHT22;25589;51.552;13.424;2022-12-26T06:36:13;12.40;99.90
39919;DHT22;25589;51.552;13.424;2022-12-26T06:38:39;12.40;99.90
39919;DHT22;25589;51.552;13.424;2022-12-26T06:41:06;12.40;99.90
39919;DHT22;25589;51.552;13.424;2022-12-26T06:43:32;13.00;99.90
39919;DHT22;25589;51.552;13.424;2022-12-26T06:45:59;12.30;99.90
39919;DHT22;25589;51.552;13.424;2022-12-26T06:48:25;12.30;99.90
39919;DHT22;25589;51.552;13.424;2022-12-26T06:50:51;12.50;99.90
39919;DHT22;25589;51.552;13.424;2022-12-26T06:53:22;12.30;99.90
39919;DHT22;25589;51.552;13.424;2022-12-26T06:55:48;12.40;99.90
39919;DHT22;25589;51.552;13.424;2022-12-26T06:58:14;12.30;99.90
39919;DHT22;25589;51.552;13.424;2022-12-26T07:00:40;12.40;99.90
39919;DHT22;25589;51.552;13.424;2022-12-26T07:05:35;12.40;99.90
39919;DHT22;25589;51.552;13.424;2022-12-26T07:08:01;12.40;99.90
39919;DHT22;25589;51.552;13.424;2022-12-26T07:10:26;12.40;99.90
39919;DHT22;25589;51.552;13.424;2022-12-26T07:12:52;12.40;99.90
39919;DHT22;25589;51.552;13.424;2022-12-26T07:15:17;12.30;99.90
39919;DHT22;25589;51.552;13.424;2022-12-26T07:17:43;12.50;99.90
39919;DHT22;25589;51.552;13.424;2022-12-26T07:20:09;12.50;99.90
39919;DHT22;25589;51.552;13.424;2022-12-26T07:22:35;12.30;99.90
39919;DHT22;25589;51.552;13.424;2022-12-26T07:25:00;12.30;99.90
39919;DHT22;25589;51.552;13.424;2022-12-26T07:27:26;12.30;99.90
39919;DHT22;25589;51.552;13.424;2022-12-26T07:29:51;12.20;99.90
39919;DHT22;25589;51.552;13.424;2022-12-26T07:32:17;12.30;99.90
39919;DHT22;25589;51.552;13.424;2022-12-26T07:34:43;12.20;99.90
39919;DHT22;25589;51.552;13.424;2022-12-26T07:37:08;12.30;99.90
39919;DHT22;25589;51.552;13.424;2022-12-26T07:39:34;12.30;99.90
39919;DHT22;25589;51.552;13.424;2022-12-26T07:42:03;12.20;99.90
39919;DHT22;25589;51.552;13.424;2022-12-26T07:44:30;12.30;99.90
39919;DHT22;25589;51.552;13.424;2022-12-26T07:46:57;12.70;99.90
39919;DHT22;25589;51.552;13.424;2022-12-26T07:49:23;12.20;99.90
39919;DHT22;25589;51.552;13.424;2022-12-26T07:51:49;12.60;99.90
39919;DHT22;25589;51.552;13.424;2022-12-26T07:54:16;12.30;99.90
39919;DHT22;25589;51.552;13.424;2022-12-26T07:56:42;12.30;99.90
39919;DHT22;25589;51.552;13.424;2022-12-26T07:59:13;12.30;99.90
39919;DHT22;25589;51.552;13.424;2022-12-26T08:01:40;12.30;99.90
39919;DHT22;25589;51.552;13.424;2022-12-26T08:04:05;12.30;99.90
39919;DHT22;25589;51.552;13.424;2022-12-26T08:06:31;12.90;99.90
39919;DHT22;25589;51.552;13.424;2022-12-26T08:08:56;12.30;99.90
39919;DHT22;25589;51.552;13.424;2022-12-26T08:11:22;12.40;99.90
39919;DHT22;25589;51.552;13.424;2022-12-26T08:13:49;12.30;99.90
39919;DHT22;25589;51.552;13.424;2022-12-26T08:16:15;12.30;99.90
39919;DHT22;25589;51.552;13.424;2022-12-26T08:18:41;12.50;99.90
39919;DHT22;25589;51.552;13.424;2022-12-26T08:21:08;12.30;99.90
39919;DHT22;25589;51.552;13.424;2022-12-26T08:23:33;12.40;99.90
39919;DHT22;25589;51.552;13.424;2022-12-26T08:26:04;12.40;99.90
39919;DHT22;25589;51.552;13.424;2022-12-26T08:28:29;12.40;99.90
39919;DHT22;25589;51.552;13.424;2022-12-26T08:30:55;12.40;99.90
39919;DHT22;25589;51.552;13.424;2022-12-26T08:33:21;12.30;99.90
39919;DHT22;25589;51.552;13.424;2022-12-26T08:35:46;12.50;99.90
39919;DHT22;25589;51.552;13.424;2022-12-26T08:38:12;12.50;99.90
39919;DHT22;25589;51.552;13.424;2022-12-26T08:40:39;12.70;99.90
39919;DHT22;25589;51.552;13.424;2022-12-26T08:43:04;12.60;99.90
39919;DHT22;25589;51.552;13.424;2022-12-26T08:45:31;12.60;99.90
39919;DHT22;25589;51.552;13.424;2022-12-26T08:47:57;12.50;99.90
39919;DHT22;25589;51.552;13.424;2022-12-26T08:50:24;12.60;99.90
39919;DHT22;25589;51.552;13.424;2022-12-26T08:52:49;12.70;99.90
39919;DHT22;25589;51.552;13.424;2022-12-26T08:55:15;12.70;99.90
39919;DHT22;25589;51.552;13.424;2022-12-26T08:57:41;12.70;99.90
39919;DHT22;25589;51.552;13.424;2022-12-26T09:00:07;13.10;99.90
39919;DHT22;25589;51.552;13.424;2022-12-26T09:02:33;12.50;99.90
39919;DHT22;25589;51.552;13.424;2022-12-26T09:04:58;12.90;99.90
39919;DHT22;25589;51.552;13.424;2022-12-26T09:07:24;12.80;99.90
39919;DHT22;25589;51.552;13.424;2022-12-26T09:09:49;12.70;99.90
39919;DHT22;25589;51.552;13.424;2022-12-26T09:12:15;12.60;99.90
39919;DHT22;25589;51.552;13.424;2022-12-26T09:14:40;12.80;99.90
39919;DHT22;25589;51.552;13.424;2022-12-26T09:17:06;12.70;99.90
39919;DHT22;25589;51.552;13.424;2022-12-26T09:19:31;12.70;99.90
39919;DHT22;25589;51.552;13.424;2022-12-26T09:21:57;12.80;99.90
39919;DHT22;25589;51.552;13.424;2022-12-26T09:24:42;12.80;99.90
39919;DHT22;25589;51.552;13.424;2022-12-26T09:27:08;12.80;99.90
39919;DHT22;25589;51.552;13.424;2022-12-26T09:29:35;12.80;99.90
39919;DHT22;25589;51.552;13.424;2022-12-26T09:32:02;12.80;99.90
39919;DHT22;25589;51.552;13.424;2022-12-26T09:34:28;12.90;99.90
39919;DHT22;25589;51.552;13.424;2022-12-26T09:36:53;12.90;99.90
39919;DHT22;25589;51.552;13.424;2022-12-26T09:39:19;13.00;99.90
39919;DHT22;25589;51.552;13.424;2022-12-26T09:41:48;12.90;99.90
39919;DHT22;25589;51.552;13.424;2022-12-26T09:44:27;13.00;99.90
39919;DHT22;25589;51.552;13.424;2022-12-26T09:47:29;13.10;99.90
39919;DHT22;25589;51.552;13.424;2022-12-26T09:50:19;12.90;99.90
39919;DHT22;25589;51.552;13.424;2022-12-26T09:52:55;13.00;99.90
39919;DHT22;25589;51.552;13.424;2022-12-26T09:55:48;13.00;99.90
39919;DHT22;25589;51.552;13.424;2022-12-26T09:58:25;12.50;99.90
39919;DHT22;25589;51.552;13.424;2022-12-26T10:01:12;12.80;99.90
39919;DHT22;25589;51.552;13.424;2022-12-26T10:03:42;12.90;99.90
39919;DHT22;25589;51.552;13.424;2022-12-26T10:06:20;13.10;99.90
39919;DHT22;25589;51.552;13.424;2022-12-26T10:14:44;13.00;99.90
39919;DHT22;25589;51.552;13.424;2022-12-26T10:17:35;13.10;99.90
39919;DHT22;25589;51.552;13.424;2022-12-26T10:25:42;13.10;99.90
39919;DHT22;25589;51.552;13.424;2022-12-26T10:30:50;13.20;99.90
39919;DHT22;25589;51.552;13.424;2022-12-26T10:33:23;13.70;99.90
39919;DHT22;25589;51.552;13.424;2022-12-26T10:35:51;13.30;99.90
39919;DHT22;25589;51.552;13.424;2022-12-26T10:38:32;13.50;99.90
39919;DHT22;25589;51.552;13.424;2022-12-26T10:41:07;13.30;99.90
39919;DHT22;25589;51.552;13.424;2022-12-26T10:43:34;13.30;99.90
39919;DHT22;25589;51.552;13.424;2022-12-26T10:46:17;13.30;99.90
39919;DHT22;25589;51.552;13.424;2022-12-26T10:48:47;13.30;99.90
39919;DHT22;25589;51.552;13.424;2022-12-26T10:51:13;13.30;99.90
39919;DHT22;25589;51.552;13.424;2022-12-26T10:53:48;13.10;99.90
39919;DHT22;25589;51.552;13.424;2022-12-26T10:56:15;12.90;99.90
39919;DHT22;25589;51.552;13.424;2022-12-26T10:58:43;12.90;99.90
39919;DHT22;25589;51.552;13.424;2022-12-26T11:03:55;12.90;99.90
39919;DHT22;25589;51.552;13.424;2022-12-26T11:08:49;12.80;99.90
39919;DHT22;25589;51.552;13.424;2022-12-26T11:11:26;12.70;99.90
39919;DHT22;25589;51.552;13.424;2022-12-26T11:14:26;12.50;99.90
39919;DHT22;25589;51.552;13.424;2022-12-26T11:16:52;12.40;99.90
39919;DHT22;25589;51.552;13.424;2022-12-26T11:19:33;12.20;99.90
39919;DHT22;25589;51.552;13.424;2022-12-26T11:22:19;12.20;99.90
39919;DHT22;25589;51.552;13.424;2022-12-26T11:24:57;12.10;99.90
39919;DHT22;25589;51.552;13.424;2022-12-26T11:27:26;12.00;99.90
39919;DHT22;25589;51.552;13.424;2022-12-26T11:30:19;12.90;99.90
39919;DHT22;25589;51.552;13.424;2022-12-26T11:32:46;11.90;99.90
39919;DHT22;25589;51.552;13.424;2022-12-26T11:35:18;11.80;99.90
39919;DHT22;25589;51.552;13.424;2022-12-26T11:37:45;12.00;99.90
39919;DHT22;25589;51.552;13.424;2022-12-26T11:40:23;11.90;99.90
39919;DHT22;25589;51.552;13.424;2022-12-26T11:42:55;12.30;99.90
39919;DHT22;25589;51.552;13.424;2022-12-26T11:45:24;11.80;99.90
39919;DHT22;25589;51.552;13.424;2022-12-26T11:47:50;11.80;99.90
39919;DHT22;25589;51.552;13.424;2022-12-26T11:50:18;12.40;99.90
39919;DHT22;25589;51.552;13.424;2022-12-26T11:52:50;11.80;99.90
39919;DHT22;25589;51.552;13.424;2022-12-26T12:00:27;11.70;99.90
39919;DHT22;25589;51.552;13.424;2022-12-26T12:02:53;11.70;99.90
39919;DHT22;25589;51.552;13.424;2022-12-26T12:11:07;11.20;99.90
39919;DHT22;25589;51.552;13.424;2022-12-26T12:14:04;11.50;99.90
39919;DHT22;25589;51.552;13.424;2022-12-26T12:16:58;11.50;99.90
39919;DHT22;25589;51.552;13.424;2022-12-26T12:19:43;11.40;99.90
39919;DHT22;25589;51.552;13.424;2022-12-26T12:25:19;11.40;99.90
39919;DHT22;25589;51.552;13.424;2022-12-26T12:30:47;11.60;99.90
39919;DHT22;25589;51.552;13.424;2022-12-26T12:33:43;11.30;99.90
39919;DHT22;25589;51.552;13.424;2022-12-26T12:36:15;11.20;99.90
39919;DHT22;25589;51.552;13.424;2022-12-26T12:38:59;11.30;99.90
39919;DHT22;25589;51.552;13.424;2022-12-26T12:42:06;10.10;99.90
39919;DHT22;25589;51.552;13.424;2022-12-26T12:45:03;11.20;99.90
39919;DHT22;25589;51.552;13.424;2022-12-26T12:47:48;11.20;99.90
39919;DHT22;25589;51.552;13.424;2022-12-26T12:50:24;11.10;99.90
39919;DHT22;25589;51.552;13.424;2022-12-26T12:56:10;11.10;99.90
39919;DHT22;25589;51.552;13.424;2022-12-26T12:58:58;11.40;99.90
39919;DHT22;25589;51.552;13.424;2022-12-26T13:01:32;11.20;99.90
39919;DHT22;25589;51.552;13.424;2022-12-26T13:04:16;11.20;99.90
39919;DHT22;25589;51.552;13.424;2022-12-26T13:06:46;11.00;99.90
39919;DHT22;25589;51.552;13.424;2022-12-26T13:09:18;11.20;99.90
39919;DHT22;25589;51.552;13.424;2022-12-26T13:11:50;11.20;99.90
39919;DHT22;25589;51.552;13.424;2022-12-26T13:16:49;11.10;99.90
39919;DHT22;25589;51.552;13.424;2022-12-26T13:19:20;11.10;99.90
39919;DHT22;25589;51.552;13.424;2022-12-26T13:21:47;11.10;99.90
39919;DHT22;25589;51.552;13.424;2022-12-26T13:24:35;11.20;99.90
39919;DHT22;25589;51.552;13.424;2022-12-26T13:27:10;11.20;99.90
39919;DHT22;25589;51.552;13.424;2022-12-26T13:29:40;11.10;99.90
39919;DHT22;25589;51.552;13.424;2022-12-26T13:32:20;11.30;99.90
39919;DHT22;25589;51.552;13.424;2022-12-26T13:34:47;11.10;99.90
39919;DHT22;25589;51.552;13.424;2022-12-26T13:40:15;11.20;99.90
39919;DHT22;25589;51.552;13.424;2022-12-26T13:42:54;11.20;99.90
39919;DHT22;25589;51.552;13.424;2022-12-26T13:50:52;10.80;99.90
39919;DHT22;25589;51.552;13.424;2022-12-26T13:56:01;11.10;99.90
39919;DHT22;25589;51.552;13.424;2022-12-26T13:59:11;11.10;99.90
39919;DHT22;25589;51.552;13.424;2022-12-26T14:04:53;11.00;99.90
39919;DHT22;25589;51.552;13.424;2022-12-26T14:07:45;11.00;99.90
39919;DHT22;25589;51.552;13.424;2022-12-26T14:10:23;11.00;99.90
39919;DHT22;25589;51.552;13.424;2022-12-26T14:18:51;11.00;99.90
39919;DHT22;25589;51.552;13.424;2022-12-26T14:21:35;10.90;99.90
39919;DHT22;25589;51.552;13.424;2022-12-26T14:24:16;10.90;99.90
39919;DHT22;25589;51.552;13.424;2022-12-26T14:29:40;10.90;99.90
39919;DHT22;25589;51.552;13.424;2022-12-26T14:35:22;10.80;99.90
39919;DHT22;25589;51.552;13.424;2022-12-26T14:40:59;10.70;99.90
39919;DHT22;25589;51.552;13.424;2022-12-26T14:43:39;10.70;99.90
39919;DHT22;25589;51.552;13.424;2022-12-26T14:48:58;10.90;99.90
39919;DHT22;25589;51.552;13.424;2022-12-26T14:51:30;10.60;99.90
39919;DHT22;25589;51.552;13.424;2022-12-26T14:56:38;10.50;99.90
39919;DHT22;25589;51.552;13.424;2022-12-26T15:02:07;10.50;99.90
39919;DHT22;25589;51.552;13.424;2022-12-26T15:04:51;10.30;99.90
39919;DHT22;25589;51.552;13.424;2022-12-26T15:18:50;10.40;99.90
39919;DHT22;25589;51.552;13.424;2022-12-26T15:21:43;10.40;99.90
39919;DHT22;25589;51.552;13.424;2022-12-26T15:24:39;10.40;99.90
39919;DHT22;25589;51.552;13.424;2022-12-26T15:30:15;10.30;99.90
39919;DHT22;25589;51.552;13.424;2022-12-26T15:32:54;10.40;99.90
39919;DHT22;25589;51.552;13.424;2022-12-26T15:35:42;10.40;99.90
39919;DHT22;25589;51.552;13.424;2022-12-26T15:38:42;10.40;99.90
39919;DHT22;25589;51.552;13.424;2022-12-26T15:49:57;10.30;99.90
39919;DHT22;25589;51.552;13.424;2022-12-26T15:52:44;10.30;99.90
39919;DHT22;25589;51.552;13.424;2022-12-26T15:58:10;10.40;99.90
39919;DHT22;25589;51.552;13.424;2022-12-26T16:03:46;10.20;99.90
39919;DHT22;25589;51.552;13.424;2022-12-26T16:09:46;10.30;99.90
39919;DHT22;25589;51.552;13.424;2022-12-26T16:12:21;10.60;99.90
39919;DHT22;25589;51.552;13.424;2022-12-26T16:14:47;10.30;99.90
39919;DHT22;25589;51.552;13.424;2022-12-26T16:19:40;10.20;99.90
39919;DHT22;25589;51.552;13.424;2022-12-26T16:22:09;10.30;99.90
39919;DHT22;25589;51.552;13.424;2022-12-26T16:24:55;10.30;99.90
39919;DHT22;25589;51.552;13.424;2022-12-26T16:27:22;10.20;99.90
39919;DHT22;25589;51.552;13.424;2022-12-26T16:30:15;10.20;99.90
39919;DHT22;25589;51.552;13.424;2022-12-26T16:32:43;9.90;99.90
39919;DHT22;25589;51.552;13.424;2022-12-26T16:35:27;10.30;99.90
39919;DHT22;25589;51.552;13.424;2022-12-26T16:37:55;10.30;99.90
39919;DHT22;25589;51.552;13.424;2022-12-26T16:40:31;10.30;99.90
39919;DHT22;25589;51.552;13.424;2022-12-26T16:43:08;10.30;99.90
39919;DHT22;25589;51.552;13.424;2022-12-26T16:45:47;10.30;99.90
39919;DHT22;25589;51.552;13.424;2022-12-26T16:48:15;10.40;99.90
39919;DHT22;25589;51.552;13.424;2022-12-26T16:50:59;10.40;99.90
39919;DHT22;25589;51.552;13.424;2022-12-26T16:56:32;10.40;99.90
39919;DHT22;25589;51.552;13.424;2022-12-26T16:59:12;10.40;99.90
39919;DHT22;25589;51.552;13.424;2022-12-26T17:01:38;10.40;99.90
39919;DHT22;25589;51.552;13.424;2022-12-26T17:04:16;10.40;99.90
39919;DHT22;25589;51.552;13.424;2022-12-26T17:06:50;10.10;99.90
39919;DHT22;25589;51.552;13.424;2022-12-26T17:09:17;10.40;99.90
39919;DHT22;25589;51.552;13.424;2022-12-26T17:11:59;10.40;99.90
39919;DHT22;25589;51.552;13.424;2022-12-26T17:14:34;10.20;99.90
39919;DHT22;25589;51.552;13.424;2022-12-26T17:17:02;10.60;99.90
39919;DHT22;25589;51.552;13.424;2022-12-26T17:19:34;10.30;99.90
39919;DHT22;25589;51.552;13.424;2022-12-26T17:22:38;10.50;99.90
39919;DHT22;25589;51.552;13.424;2022-12-26T17:27:43;10.50;99.90
39919;DHT22;25589;51.552;13.424;2022-12-26T17:30:29;10.80;99.90
39919;DHT22;25589;51.552;13.424;2022-12-26T17:33:00;10.60;99.90
39919;DHT22;25589;51.552;13.424;2022-12-26T17:35:29;10.60;99.90
39919;DHT22;25589;51.552;13.424;2022-12-26T17:38:00;10.60;99.90
39919;DHT22;25589;51.552;13.424;2022-12-26T17:40:31;10.60;99.90
39919;DHT22;25589;51.552;13.424;2022-12-26T17:43:19;10.60;99.90
39919;DHT22;25589;51.552;13.424;2022-12-26T17:45:45;10.60;99.90
39919;DHT22;25589;51.552;13.424;2022-12-26T17:48:11;10.50;99.90
39919;DHT22;25589;51.552;13.424;2022-12-26T17:50:39;10.60;99.90
39919;DHT22;25589;51.552;13.424;2022-12-26T17:53:24;10.60;99.90
39919;DHT22;25589;51.552;13.424;2022-12-26T17:55:52;10.60;99.90
39919;DHT22;25589;51.552;13.424;2022-12-26T17:58:19;10.60;99.90
39919;DHT22;25589;51.552;13.424;2022-12-26T18:00:45;10.60;99.90
39919;DHT22;25589;51.552;13.424;2022-12-26T18:03:11;10.70;99.90
39919;DHT22;25589;51.552;13.424;2022-12-26T18:05:37;10.70;99.90
39919;DHT22;25589;51.552;13.424;2022-12-26T18:08:03;10.60;99.90
39919;DHT22;25589;51.552;13.424;2022-12-26T18:10:33;10.70;99.90
39919;DHT22;25589;51.552;13.424;2022-12-26T18:13:00;10.70;99.90
39919;DHT22;25589;51.552;13.424;2022-12-26T18:15:27;10.90;99.90
39919;DHT22;25589;51.552;13.424;2022-12-26T18:17:53;10.70;99.90
39919;DHT22;25589;51.552;13.424;2022-12-26T18:20:28;10.70;99.90
39919;DHT22;25589;51.552;13.424;2022-12-26T18:22:54;10.70;99.90
39919;DHT22;25589;51.552;13.424;2022-12-26T18:25:23;10.80;99.90
39919;DHT22;25589;51.552;13.424;2022-12-26T18:27:50;10.70;99.90
39919;DHT22;25589;51.552;13.424;2022-12-26T18:30:22;10.80;99.90
39919;DHT22;25589;51.552;13.424;2022-12-26T18:32:49;10.80;99.90